Time;durP1;ratioP1;P1;durP2;ratioP2;P2;SDS_P1;SDS_P2;PMS_P1;PMS_P2;Temp;Humidity;BMP_temperature;BMP_pressure;BME280_temperature;BME280_humidity;BME280_pressure;Samples;Min_cycle;Max_cycle;Signal;HPM_P1;HPM_P2
2023/07/11 00:00:43;;;;;;;4.43;4.03;;;;;;;21.95;46.42;95966.91;5025834;28;20187;-83
2023/07/11 00:03:10;;;;;;;4.40;4.00;;;;;;;21.99;46.06;95969.94;5015821;28;20278;-84
2023/07/11 00:05:36;;;;;;;4.00;3.58;;;;;;;21.99;46.05;95967.28;5014965;28;20210;-83
2023/07/11 00:08:01;;;;;;;5.22;4.15;;;;;;;21.96;45.95;95965.09;5014264;28;20214;-81
2023/07/11 00:10:26;;;;;;;4.70;3.88;;;;;;;21.98;46.05;95963.84;5018859;28;20610;-84
2023/07/11 00:12:52;;;;;;;4.60;3.90;;;;;;;22.03;45.76;95966.69;5019634;28;20614;-82
2023/07/11 00:15:17;;;;;;;4.82;4.43;;;;;;;22.03;45.88;95956.09;5022461;28;20190;-84
2023/07/11 00:17:44;;;;;;;6.88;4.45;;;;;;;22.01;45.80;95957.34;5016177;28;20189;-84
2023/07/11 00:20:14;;;;;;;5.15;4.20;;;;;;;22.05;45.73;95958.53;5025611;28;20191;-83
2023/07/11 00:22:39;;;;;;;4.88;4.07;;;;;;;22.00;45.67;95959.19;5011362;28;20194;-84
2023/07/11 00:25:05;;;;;;;4.95;3.72;;;;;;;22.04;45.85;95952.44;5006910;28;20660;-84
2023/07/11 00:27:31;;;;;;;5.07;3.88;;;;;;;22.08;45.68;95957.34;5031018;28;20205;-84
2023/07/11 00:29:57;;;;;;;5.95;4.50;;;;;;;22.18;45.62;95950.59;5013384;28;20215;-81
2023/07/11 00:32:23;;;;;;;4.20;3.80;;;;;;;22.14;45.77;95953.84;5013175;28;20642;-84
2023/07/11 00:34:48;;;;;;;5.40;4.28;;;;;;;22.14;45.76;95949.38;5011624;28;20189;-83
2023/07/11 00:37:14;;;;;;;5.53;4.05;;;;;;;22.15;45.97;95948.34;5018511;28;20194;-84
2023/07/11 00:39:39;;;;;;;5.07;3.95;;;;;;;22.13;45.97;95942.47;5009141;28;20186;-84
2023/07/11 00:42:06;;;;;;;6.95;4.35;;;;;;;22.19;45.52;95938.19;5020959;28;20255;-84
2023/07/11 00:44:50;;;;;;;5.68;4.03;;;;;;;22.24;45.61;95938.34;5021673;28;20186;-83
2023/07/11 00:47:16;;;;;;;5.32;4.40;;;;;;;22.19;45.22;95936.34;5023245;28;20191;-82
2023/07/11 00:49:41;;;;;;;6.88;4.13;;;;;;;22.17;45.66;95935.72;5012631;28;20731;-84
2023/07/11 00:52:07;;;;;;;5.13;4.40;;;;;;;22.15;45.71;95940.41;5013130;28;20217;-84
2023/07/11 00:54:33;;;;;;;4.18;3.78;;;;;;;22.15;45.54;95932.47;5012493;28;20186;-82
2023/07/11 00:57:01;;;;;;;5.00;4.05;;;;;;;22.19;45.40;95928.41;5019655;28;20218;-83
2023/07/11 00:59:26;;;;;;;4.45;4.05;;;;;;;22.14;45.53;95933.50;5007663;28;20213;-81
2023/07/11 01:02:25;;;;;;;6.07;4.05;;;;;;;22.16;45.49;95931.47;5019958;28;20194;-84
2023/07/11 01:04:50;;;;;;;5.13;3.83;;;;;;;22.09;45.66;95925.41;4990148;28;20195;-83
2023/07/11 01:07:23;;;;;;;4.93;4.20;;;;;;;22.13;45.71;95928.44;4974558;28;20203;-82
2023/07/11 01:09:49;;;;;;;4.10;3.70;;;;;;;22.12;45.92;95927.63;4974640;28;20196;-84
2023/07/11 01:12:16;;;;;;;6.32;4.18;;;;;;;22.16;45.33;95923.53;4973972;28;20195;-83
2023/07/11 01:14:43;;;;;;;5.20;4.10;;;;;;;22.17;45.41;95922.50;4973926;28;20586;-83
2023/07/11 01:17:30;;;;;;;7.32;4.47;;;;;;;22.19;45.34;95922.31;4974298;28;20299;-84
2023/07/11 01:19:57;;;;;;;5.10;4.28;;;;;;;22.16;45.38;95922.72;4988938;28;20732;-81
2023/07/11 01:22:24;;;;;;;6.72;4.50;;;;;;;22.09;45.63;95917.47;4978500;28;20717;-83
2023/07/11 01:24:51;;;;;;;4.78;4.22;;;;;;;22.17;45.30;95917.22;4993460;28;20196;-83
2023/07/11 01:27:16;;;;;;;5.05;4.30;;;;;;;22.20;45.43;95914.16;4978204;28;20236;-83
2023/07/11 01:29:42;;;;;;;6.95;4.65;;;;;;;22.08;45.66;95910.53;4978046;28;20275;-84
2023/07/11 01:32:08;;;;;;;4.15;3.75;;;;;;;22.07;45.66;95903.63;4985522;28;20184;-84
2023/07/11 01:34:34;;;;;;;5.07;4.30;;;;;;;22.02;45.76;95906.09;4977254;28;20330;-84
2023/07/11 01:36:59;;;;;;;4.95;3.45;;;;;;;22.10;45.75;95902.41;4988350;28;20245;-81
2023/07/11 01:39:25;;;;;;;4.55;4.13;;;;;;;21.95;46.14;95903.47;4980225;28;20191;-84
2023/07/11 01:41:50;;;;;;;7.50;4.40;;;;;;;21.93;46.22;95902.88;5023900;28;20210;-84
2023/07/11 01:44:15;;;;;;;5.10;4.05;;;;;;;21.93;45.91;95896.75;5029918;28;20282;-84
2023/07/11 01:46:41;;;;;;;5.63;3.88;;;;;;;21.95;45.88;95894.72;5021878;28;20238;-81
2023/07/11 01:49:06;;;;;;;6.35;4.13;;;;;;;21.98;45.73;95896.94;5023193;28;20214;-82
2023/07/11 01:51:31;;;;;;;5.40;4.32;;;;;;;21.83;46.13;95888.47;5010951;28;20186;-82
2023/07/11 01:53:57;;;;;;;4.75;4.35;;;;;;;21.71;46.17;95889.09;5025241;28;20194;-84
2023/07/11 01:56:22;;;;;;;5.15;4.43;;;;;;;21.69;46.41;95883.22;5033047;28;20210;-84
2023/07/11 01:58:47;;;;;;;10.05;5.28;;;;;;;21.68;46.25;95883.44;5018762;28;20649;-82
2023/07/11 02:01:13;;;;;;;5.30;4.00;;;;;;;21.68;46.33;95886.88;5017626;28;20197;-84
2023/07/11 02:03:38;;;;;;;5.55;4.43;;;;;;;21.68;46.19;95881.59;5028268;28;20277;-84
2023/07/11 02:06:04;;;;;;;5.40;4.05;;;;;;;21.57;46.47;95874.31;5029231;28;20239;-84
2023/07/11 02:08:29;;;;;;;5.53;4.40;;;;;;;21.64;46.12;95877.72;5031882;28;20588;-82
2023/07/11 02:10:54;;;;;;;7.50;4.00;;;;;;;21.61;46.23;95875.50;5017781;28;20198;-84
2023/07/11 02:13:20;;;;;;;6.55;3.88;;;;;;;21.54;46.37;95874.72;5001642;28;20666;-82
2023/07/11 02:15:45;;;;;;;5.20;4.20;;;;;;;21.48;46.66;95872.94;5009010;28;20634;-81
2023/07/11 02:18:11;;;;;;;5.28;4.25;;;;;;;21.61;46.25;95864.13;5020540;28;20191;-84
2023/07/11 02:20:40;;;;;;;4.32;3.85;;;;;;;21.62;46.29;95863.13;5016961;28;20194;-82
2023/07/11 02:23:06;;;;;;;5.18;4.30;;;;;;;21.52;46.30;95862.75;5023007;28;20219;-84
2023/07/11 02:25:31;;;;;;;4.30;3.90;;;;;;;21.48;46.34;95868.44;5017584;28;20301;-82
2023/07/11 02:27:57;;;;;;;4.35;3.92;;;;;;;21.67;45.90;95860.66;5028221;28;20244;-84
2023/07/11 02:30:22;;;;;;;6.07;4.40;;;;;;;21.66;45.88;95856.41;5033145;28;20179;-84
2023/07/11 02:32:47;;;;;;;5.78;3.85;;;;;;;21.67;45.59;95858.03;5021658;28;20210;-81
2023/07/11 02:35:13;;;;;;;5.50;3.63;;;;;;;21.63;45.68;95857.63;5016542;28;20195;-84
2023/07/11 02:37:38;;;;;;;6.75;4.38;;;;;;;21.56;45.75;95856.84;5015034;28;20191;-83
2023/07/11 02:40:04;;;;;;;5.00;3.95;;;;;;;21.44;46.51;95856.66;5026482;28;20183;-84
2023/07/11 02:42:29;;;;;;;5.00;4.10;;;;;;;21.52;46.39;95852.97;5030763;28;20206;-84
2023/07/11 02:44:54;;;;;;;4.93;3.92;;;;;;;21.46;46.76;95854.63;5016776;28;20206;-84
2023/07/11 02:47:20;;;;;;;5.43;4.25;;;;;;;21.55;46.41;95852.56;5028570;28;20631;-85
2023/07/11 02:49:45;;;;;;;6.15;4.03;;;;;;;21.48;46.62;95844.69;5024337;28;20974;-84
2023/07/11 02:52:13;;;;;;;5.72;4.20;;;;;;;21.52;46.55;95842.41;5016715;28;20673;-84
2023/07/11 02:54:39;;;;;;;4.97;3.78;;;;;;;21.62;46.37;95847.25;5027095;28;20179;-85
2023/07/11 02:57:08;;;;;;;5.55;4.13;;;;;;;21.50;47.03;95841.81;5015473;28;20233;-85
2023/07/11 02:59:34;;;;;;;5.25;4.07;;;;;;;21.57;47.06;95839.16;5031675;28;20190;-84
2023/07/11 03:01:59;;;;;;;5.85;3.97;;;;;;;21.62;46.80;95842.78;5023249;28;20281;-84
2023/07/11 03:04:27;;;;;;;5.18;4.05;;;;;;;21.62;46.66;95847.25;5003951;28;20241;-82
2023/07/11 03:06:56;;;;;;;5.10;4.07;;;;;;;21.58;47.01;95840.78;5014826;28;20561;-85
2023/07/11 03:09:23;;;;;;;6.15;3.95;;;;;;;21.50;47.27;95839.19;5002670;28;20687;-84
2023/07/11 03:11:48;;;;;;;6.65;4.38;;;;;;;21.53;46.86;95830.81;5025594;28;20183;-85
2023/07/11 03:14:13;;;;;;;5.18;4.18;;;;;;;21.59;46.48;95832.63;5016521;28;20450;-85
2023/07/11 03:16:39;;;;;;;5.25;4.40;;;;;;;21.55;46.67;95820.84;5028050;28;20214;-83
2023/07/11 03:19:04;;;;;;;5.43;4.32;;;;;;;21.59;46.20;95824.72;5032427;28;20466;-83
2023/07/11 03:21:30;;;;;;;5.55;4.97;;;;;;;21.59;46.20;95819.44;5008262;28;20186;-85
2023/07/11 03:23:55;;;;;;;5.97;4.97;;;;;;;21.65;45.91;95815.97;5015483;28;20277;-85
2023/07/11 03:26:20;;;;;;;6.45;5.65;;;;;;;21.69;45.84;95814.50;5016143;28;20198;-83
2023/07/11 03:28:46;;;;;;;7.55;6.30;;;;;;;21.70;45.47;95813.47;5022420;28;20207;-85
2023/07/11 03:31:11;;;;;;;9.27;6.85;;;;;;;21.66;45.57;95811.47;5020735;28;20205;-83
2023/07/11 03:33:36;;;;;;;10.65;7.72;;;;;;;21.64;45.39;95814.31;5024273;28;20190;-85
2023/07/11 03:36:02;;;;;;;12.07;8.15;;;;;;;21.61;45.52;95812.09;5003897;28;20207;-84
2023/07/11 03:38:27;;;;;;;10.68;8.32;;;;;;;21.69;45.35;95811.06;5029084;28;20186;-84
2023/07/11 03:40:53;;;;;;;9.95;7.70;;;;;;;21.71;44.89;95804.53;5033960;28;20178;-85
2023/07/11 03:43:19;;;;;;;8.45;7.25;;;;;;;21.71;44.89;95801.88;5024751;28;20194;-83
2023/07/11 03:45:47;;;;;;;9.05;7.95;;;;;;;21.74;44.68;95806.75;5024151;28;20681;-85
2023/07/11 03:48:14;;;;;;;10.60;7.20;;;;;;;21.84;44.47;95802.84;5014571;28;20223;-82
2023/07/11 03:50:40;;;;;;;9.50;7.80;;;;;;;21.87;44.22;95805.06;5031590;28;20241;-84
2023/07/11 03:53:05;;;;;;;10.27;7.95;;;;;;;21.99;44.24;95806.00;5022897;28;20214;-84
2023/07/11 03:55:31;;;;;;;11.77;7.93;;;;;;;22.03;43.86;95802.72;5013664;28;20210;-84
2023/07/11 03:57:56;;;;;;;10.30;7.50;;;;;;;22.11;43.53;95795.59;5024538;28;20744;-85
2023/07/11 04:00:21;;;;;;;10.02;7.28;;;;;;;22.21;43.64;95799.41;5012249;28;20661;-84
2023/07/11 04:02:47;;;;;;;9.35;7.07;;;;;;;22.92;41.83;95800.06;5026277;28;20186;-85
2023/07/11 04:05:12;;;;;;;7.90;6.93;;;;;;;23.16;41.17;95796.59;5028094;28;20213;-84
2023/07/11 04:07:37;;;;;;;12.20;6.72;;;;;;;23.86;40.00;95798.84;5027462;28;20698;-83
2023/07/11 04:10:05;;;;;;;7.25;6.53;;;;;;;24.37;38.88;95786.91;5027405;28;20214;-85
2023/07/11 04:12:30;;;;;;;7.53;6.70;;;;;;;24.68;38.26;95789.25;5025422;28;20205;-84
2023/07/11 04:14:55;;;;;;;9.90;6.82;;;;;;;24.95;37.75;95797.59;5013908;28;20555;-82
2023/07/11 04:17:21;;;;;;;11.38;6.90;;;;;;;24.90;37.77;95794.78;5024773;28;20564;-85
2023/07/11 04:19:46;;;;;;;9.95;6.25;;;;;;;25.04;37.02;95796.22;5004926;28;20199;-84
2023/07/11 04:22:11;;;;;;;8.60;6.32;;;;;;;25.00;37.44;95786.25;5023009;28;20186;-83
2023/07/11 04:24:37;;;;;;;7.97;6.13;;;;;;;25.34;36.77;95787.28;5021408;28;20291;-85
2023/07/11 04:27:02;;;;;;;8.20;6.82;;;;;;;25.50;36.29;95791.88;5014758;28;20302;-84
2023/07/11 04:29:27;;;;;;;7.38;5.70;;;;;;;26.05;35.52;95794.00;5010269;28;20245;-82
2023/07/11 04:31:53;;;;;;;6.55;5.80;;;;;;;25.97;35.61;95794.41;5025324;28;20183;-85
2023/07/11 04:34:18;;;;;;;8.18;6.60;;;;;;;26.34;35.17;95791.34;5023445;28;20679;-85
2023/07/11 04:36:43;;;;;;;8.20;6.18;;;;;;;26.26;35.16;95796.00;5022865;28;20261;-84
2023/07/11 04:39:09;;;;;;;8.05;5.57;;;;;;;26.55;34.83;95798.66;5020901;28;20266;-84
2023/07/11 04:41:34;;;;;;;9.50;5.93;;;;;;;26.42;34.74;95785.66;5029670;28;20193;-84
2023/07/11 04:43:59;;;;;;;8.85;5.38;;;;;;;26.90;34.09;95805.56;5028986;28;20190;-82
2023/07/11 04:46:25;;;;;;;8.32;5.00;;;;;;;26.98;34.01;95797.97;5025587;28;20210;-81
2023/07/11 04:48:51;;;;;;;6.63;5.60;;;;;;;26.93;34.64;95799.75;5020246;28;20207;-82
2023/07/11 04:51:16;;;;;;;8.20;5.15;;;;;;;27.11;33.94;95796.84;5012073;28;20182;-82
2023/07/11 04:53:42;;;;;;;6.28;4.80;;;;;;;27.26;33.62;95799.72;5021857;28;20556;-82
2023/07/11 04:56:09;;;;;;;6.30;5.10;;;;;;;27.33;34.01;95795.03;5028565;28;20209;-82
2023/07/11 04:58:35;;;;;;;7.95;5.25;;;;;;;28.26;32.54;95805.72;5014131;28;20217;-82
2023/07/11 05:01:01;;;;;;;7.68;5.10;;;;;;;28.10;32.72;95803.97;5023861;28;20182;-81
2023/07/11 05:03:27;;;;;;;8.38;5.55;;;;;;;27.71;33.19;95796.06;5025373;28;20186;-83
2023/07/11 05:05:52;;;;;;;8.95;5.43;;;;;;;28.70;32.37;95798.38;5023741;28;20548;-84
2023/07/11 05:08:17;;;;;;;6.25;5.28;;;;;;;29.60;31.24;95793.91;5018341;28;20771;-82
2023/07/11 05:11:16;;;;;;;7.53;5.70;;;;;;;29.32;30.96;95788.91;5020964;28;20191;-84
2023/07/11 05:13:43;;;;;;;7.93;5.10;;;;;;;28.96;31.69;95788.69;4994877;28;20664;-84
2023/07/11 05:16:11;;;;;;;7.07;5.25;;;;;;;30.04;29.99;95790.84;5017039;28;20206;-82
2023/07/11 05:18:42;;;;;;;5.90;5.18;;;;;;;30.39;29.83;95790.13;5026017;28;20823;-84
2023/07/11 05:21:10;;;;;;;6.28;4.80;;;;;;;29.94;30.72;95782.75;5029098;28;20252;-83
2023/07/11 05:23:36;;;;;;;7.28;4.93;;;;;;;31.05;28.44;95783.94;5014881;28;20194;-85
2023/07/11 05:26:01;;;;;;;8.15;4.45;;;;;;;31.37;28.15;95785.53;5030454;28;20202;-84
2023/07/11 05:28:27;;;;;;;5.70;4.90;;;;;;;31.64;27.94;95785.97;5035143;28;20210;-84
2023/07/11 05:30:53;;;;;;;5.85;4.38;;;;;;;31.12;28.62;95781.78;5018010;28;20187;-84
2023/07/11 05:33:19;;;;;;;6.50;4.25;;;;;;;30.64;29.43;95785.81;5019242;28;20719;-84
2023/07/11 05:35:59;;;;;;;5.35;4.25;;;;;;;30.40;29.99;95778.34;5018898;28;20429;-82
2023/07/11 05:38:24;;;;;;;4.63;4.22;;;;;;;30.17;30.38;95779.63;5020046;28;20389;-84
2023/07/11 05:40:50;;;;;;;5.20;4.32;;;;;;;31.51;28.34;95775.78;5017883;28;20190;-85
2023/07/11 05:43:15;;;;;;;4.72;4.10;;;;;;;32.44;27.69;95769.69;5032265;28;20191;-85
2023/07/11 05:45:43;;;;;;;5.60;4.40;;;;;;;32.06;27.82;95779.31;5032296;28;20203;-84
2023/07/11 05:48:09;;;;;;;5.68;4.70;;;;;;;32.11;27.87;95779.28;5027930;28;20249;-84
2023/07/11 05:50:34;;;;;;;5.95;4.80;;;;;;;31.98;28.09;95783.41;5005515;28;20596;-84
2023/07/11 05:52:59;;;;;;;5.10;4.38;;;;;;;32.17;27.74;95772.00;5025427;28;20218;-83
2023/07/11 05:55:25;;;;;;;5.72;4.53;;;;;;;32.57;27.53;95770.94;5015531;28;20225;-83
2023/07/11 05:57:50;;;;;;;6.47;4.82;;;;;;;32.80;27.68;95766.72;5022088;28;20575;-79
2023/07/11 06:00:16;;;;;;;5.68;4.65;;;;;;;32.63;27.99;95770.63;5028978;28;20182;-82
2023/07/11 06:02:41;;;;;;;6.10;4.45;;;;;;;33.69;26.54;95767.94;5021235;28;20257;-81
2023/07/11 06:05:07;;;;;;;4.45;4.07;;;;;;;34.08;26.13;95767.72;5015573;28;20196;-81
2023/07/11 06:07:34;;;;;;;5.30;4.75;;;;;;;33.98;26.23;95762.47;5026197;28;20576;-83
2023/07/11 06:09:59;;;;;;;5.68;5.18;;;;;;;34.10;26.68;95770.09;5013871;28;20202;-83
2023/07/11 06:12:24;;;;;;;7.10;4.88;;;;;;;34.36;26.15;95762.44;5019865;28;20705;-83
2023/07/11 06:14:50;;;;;;;5.70;4.82;;;;;;;33.89;27.13;95761.50;5016003;28;20273;-84
2023/07/11 06:17:16;;;;;;;4.63;4.20;;;;;;;35.35;25.39;95766.75;5025539;28;20317;-82
2023/07/11 06:19:41;;;;;;;5.03;4.50;;;;;;;34.34;26.73;95760.03;5020002;28;20201;-83
2023/07/11 06:22:06;;;;;;;5.88;4.85;;;;;;;34.67;26.17;95751.22;5038985;28;20271;-83
2023/07/11 06:24:32;;;;;;;6.95;5.18;;;;;;;35.57;25.35;95764.16;5030162;28;20182;-82
2023/07/11 06:26:57;;;;;;;5.70;5.10;;;;;;;36.36;24.42;95763.84;5027928;28;20206;-83
2023/07/11 06:29:22;;;;;;;5.57;4.57;;;;;;;36.61;23.97;95758.94;5025236;28;20253;-83
2023/07/11 06:31:48;;;;;;;6.82;4.82;;;;;;;35.64;25.14;95758.34;5026006;28;20260;-81
2023/07/11 06:34:13;;;;;;;5.32;4.78;;;;;;;35.02;26.07;95753.31;5023865;28;20210;-82
2023/07/11 06:36:38;;;;;;;5.85;5.13;;;;;;;35.30;25.86;95754.13;5034591;28;20202;-81
2023/07/11 06:39:04;;;;;;;6.85;4.97;;;;;;;35.43;25.45;95755.28;5023133;28;20262;-80
2023/07/11 06:41:29;;;;;;;7.07;4.97;;;;;;;35.86;25.03;95760.31;5016308;28;20186;-82
2023/07/11 06:43:55;;;;;;;5.40;4.95;;;;;;;36.63;23.97;95756.72;5007480;28;20313;-83
2023/07/11 06:46:22;;;;;;;6.15;5.65;;;;;;;35.37;25.04;95756.44;5029022;28;20632;-83
2023/07/11 06:48:47;;;;;;;5.75;5.05;;;;;;;35.24;25.76;95759.91;5030299;28;20265;-82
2023/07/11 06:51:12;;;;;;;5.47;4.97;;;;;;;35.47;25.65;95758.97;5014936;28;20191;-84
2023/07/11 06:53:37;;;;;;;8.27;4.90;;;;;;;35.37;25.52;95756.44;5014485;28;20221;-84
2023/07/11 06:56:04;;;;;;;5.63;5.13;;;;;;;35.36;25.84;95755.63;5025067;28;20202;-82
2023/07/11 06:58:29;;;;;;;6.55;5.20;;;;;;;36.95;24.11;95750.25;5014252;28;20241;-83
2023/07/11 07:01:01;;;;;;;5.75;5.15;;;;;;;38.10;22.26;95749.22;5015547;28;20716;-85
2023/07/11 07:03:27;;;;;;;7.10;5.22;;;;;;;37.69;22.70;95750.38;5016473;28;20183;-80
2023/07/11 07:05:58;;;;;;;6.22;5.40;;;;;;;36.20;24.47;95754.44;5021548;28;20218;-81
2023/07/11 07:08:24;;;;;;;5.45;4.95;;;;;;;38.24;22.47;95755.28;5027865;28;20210;-83
2023/07/11 07:10:50;;;;;;;5.25;4.75;;;;;;;37.44;22.93;95746.50;5027125;28;20683;-76
2023/07/11 07:13:16;;;;;;;5.82;5.20;;;;;;;37.49;22.82;95743.66;5020716;28;20608;-76
2023/07/11 07:15:42;;;;;;;6.22;5.63;;;;;;;37.67;22.82;95747.19;5019501;28;20635;-77
2023/07/11 07:18:07;;;;;;;5.80;5.30;;;;;;;37.00;23.85;95745.50;5029108;28;20182;-80
2023/07/11 07:20:33;;;;;;;5.57;5.05;;;;;;;38.00;22.39;95741.41;5017727;28;20191;-78
2023/07/11 07:22:58;;;;;;;9.63;5.38;;;;;;;37.60;23.00;95736.81;5026100;28;20237;-79
2023/07/11 07:25:23;;;;;;;6.10;5.32;;;;;;;37.73;22.56;95745.94;5016097;28;20211;-80
2023/07/11 07:27:48;;;;;;;6.10;5.18;;;;;;;35.91;25.48;95739.44;5020682;28;20589;-78
2023/07/11 07:30:14;;;;;;;8.45;5.53;;;;;;;37.15;23.85;95744.28;5024114;28;20189;-83
2023/07/11 07:32:39;;;;;;;7.95;5.13;;;;;;;38.01;22.84;95735.66;5016099;28;20183;-82
2023/07/11 07:35:05;;;;;;;6.85;5.60;;;;;;;38.30;22.64;95739.66;5024267;28;20564;-82
2023/07/11 07:37:30;;;;;;;5.68;5.03;;;;;;;36.84;24.03;95728.88;5031778;28;20816;-83
2023/07/11 07:39:56;;;;;;;8.13;5.95;;;;;;;38.31;22.55;95733.91;5030937;28;20186;-82
2023/07/11 07:42:22;;;;;;;5.45;5.05;;;;;;;37.35;23.90;95732.91;5016116;28;20198;-83
2023/07/11 07:44:47;;;;;;;6.30;5.53;;;;;;;37.16;24.46;95737.75;5029190;28;20183;-83
2023/07/11 07:47:13;;;;;;;7.30;5.28;;;;;;;38.27;22.85;95737.59;5024446;28;20324;-83
2023/07/11 07:49:38;;;;;;;6.53;5.93;;;;;;;37.92;23.17;95735.63;5022024;28;20218;-83
2023/07/11 07:52:04;;;;;;;5.90;5.40;;;;;;;37.77;23.46;95735.28;5015841;28;20281;-83
2023/07/11 07:54:29;;;;;;;6.05;5.45;;;;;;;37.00;24.32;95728.44;5026093;28;20191;-82
2023/07/11 07:57:08;;;;;;;;;;;;;;;;;;;;;
2023/07/11 07:59:36;;;;;;;6.40;5.80;;;;;;;36.96;24.68;95730.19;5033802;28;20178;-82
2023/07/11 08:09:10;;;;;;;6.30;5.80;;;;;;;36.65;25.92;95717.41;4877152;29;20268;-82
2023/07/11 08:12:02;;;;;;;;;;;;;;;;;;;;;
2023/07/11 08:15:11;;;;;;;6.63;5.78;;;;;;;35.88;26.90;95704.13;4889133;29;20203;-83
2023/07/11 08:17:57;;;;;;;8.68;6.38;;;;;;;35.38;28.28;95704.03;4893425;29;20203;-83
2023/07/11 08:20:26;;;;;;;6.70;6.10;;;;;;;34.02;29.77;95698.84;4862951;29;20674;-83
2023/07/11 08:23:35;;;;;;;6.68;5.85;;;;;;;35.68;28.10;95705.31;4875016;29;20211;-83
2023/07/11 08:26:19;;;;;;;6.57;5.90;;;;;;;34.82;29.88;95703.19;4865723;29;20319;-83
2023/07/11 08:29:29;;;;;;;;;;;;;;;;;;;;;
2023/07/11 08:32:56;;;;;;;10.10;6.53;;;;;;;35.34;28.70;95697.63;4863629;29;20191;-83
2023/07/11 08:35:22;;;;;;;6.80;6.05;;;;;;;33.48;31.00;95678.56;4874196;29;20821;-80
2023/07/11 08:37:47;;;;;;;7.10;6.40;;;;;;;34.86;29.16;95681.81;4872251;29;20205;-81
2023/07/11 08:40:20;;;;;;;6.85;5.72;;;;;;;34.98;28.96;95684.03;4925435;29;20196;-82
2023/07/11 08:42:45;;;;;;;6.30;5.70;;;;;;;34.79;29.71;95684.09;4930818;29;20236;-82
2023/07/11 08:45:22;;;;;;;7.20;5.80;;;;;;;34.27;30.63;95675.25;4966818;28;20199;-82
2023/07/11 08:47:59;;;;;;;6.57;5.97;;;;;;;34.38;30.72;95681.31;5015788;28;20208;-82
2023/07/11 08:50:40;;;;;;;7.97;6.53;;;;;;;34.71;30.08;95679.38;5032795;28;20183;-83
2023/07/11 08:53:09;;;;;;;6.70;6.10;;;;;;;34.38;30.22;95674.00;5034096;28;20958;-82
2023/07/11 08:55:38;;;;;;;6.63;5.95;;;;;;;34.22;30.72;95676.16;5017321;28;20685;-82
2023/07/11 08:58:16;;;;;;;7.18;6.38;;;;;;;33.95;30.67;95668.78;5017860;28;20202;-82
2023/07/11 09:00:44;;;;;;;6.32;5.72;;;;;;;34.36;29.63;95676.19;5034794;28;20293;-82
2023/07/11 09:03:34;;;;;;;;;;;;;;;;;;;;;
2023/07/11 09:06:09;;;;;;;7.82;6.35;;;;;;;33.79;31.86;95670.84;5056050;28;20229;-80
2023/07/11 09:08:43;;;;;;;6.35;5.78;;;;;;;34.58;30.29;95662.09;5052962;28;20218;-80
2023/07/11 09:11:08;;;;;;;8.05;6.57;;;;;;;34.65;30.22;95657.13;5050615;28;20209;-80
2023/07/11 09:14:11;;;;;;;7.85;5.57;;;;;;;34.07;31.65;95650.25;5055200;28;20186;-80
2023/07/11 09:16:45;;;;;;;8.50;6.43;;;;;;;33.85;31.75;95650.03;5055762;28;20214;-79
2023/07/11 09:19:25;;;;;;;8.10;6.25;;;;;;;34.29;29.68;95646.94;5050106;28;20195;-81
2023/07/11 09:22:02;;;;;;;8.63;6.25;;;;;;;33.58;31.95;95645.31;5050677;28;20201;-80
2023/07/11 09:24:33;;;;;;;7.95;6.70;;;;;;;34.00;31.71;95649.03;5049995;28;20186;-80
2023/07/11 09:27:09;;;;;;;11.32;6.68;;;;;;;34.09;31.48;95644.56;5041423;28;20292;-83
2023/07/11 09:29:34;;;;;;;7.20;6.50;;;;;;;33.05;32.14;95650.03;5032511;28;20706;-84
2023/07/11 09:32:02;;;;;;;10.05;6.78;;;;;;;32.87;31.73;95636.25;5031341;28;20183;-81
2023/07/11 09:34:36;;;;;;;7.63;6.97;;;;;;;33.42;30.61;95639.34;5040660;28;20171;-81
2023/07/11 09:37:30;;;;;;;12.88;6.75;;;;;;;32.72;31.04;95628.31;5038495;28;20599;-80
2023/07/11 09:39:58;;;;;;;7.30;6.57;;;;;;;33.56;29.73;95628.63;5033718;28;20900;-83
2023/07/11 09:42:52;;;;;;;6.38;5.68;;;;;;;34.16;28.71;95633.41;5039651;28;20285;-83
2023/07/11 09:45:20;;;;;;;7.93;6.45;;;;;;;34.61;29.92;95637.22;5040835;28;20177;-82
2023/07/11 09:47:56;;;;;;;7.38;6.03;;;;;;;34.32;30.33;95640.94;5045635;28;20205;-80
2023/07/11 09:50:27;;;;;;;8.27;6.97;;;;;;;33.76;30.24;95633.75;5026779;28;20178;-80
2023/07/11 09:52:55;;;;;;;9.32;6.55;;;;;;;34.02;31.14;95633.38;5054967;28;20204;-82
2023/07/11 09:55:25;;;;;;;7.35;6.43;;;;;;;34.48;30.47;95630.72;5047310;28;20194;-82
2023/07/11 09:57:53;;;;;;;7.72;7.03;;;;;;;34.49;30.21;95635.03;5003057;28;20195;-82
2023/07/11 10:00:18;;;;;;;7.90;6.78;;;;;;;35.01;29.63;95635.69;5012123;28;20177;-82
2023/07/11 10:02:47;;;;;;;7.95;6.88;;;;;;;35.52;28.86;95631.13;5023120;28;20783;-83
2023/07/11 10:05:17;;;;;;;8.90;6.90;;;;;;;35.65;29.11;95631.09;5036081;28;20210;-83
2023/07/11 10:07:42;;;;;;;8.77;6.90;;;;;;;35.12;29.71;95628.97;5062230;28;20664;-83
2023/07/11 10:10:13;;;;;;;10.00;6.57;;;;;;;35.08;29.21;95630.69;5024569;28;20251;-84
2023/07/11 10:12:42;;;;;;;7.97;6.72;;;;;;;35.78;28.76;95642.16;5028484;28;20594;-81
2023/07/11 10:15:14;;;;;;;8.73;6.70;;;;;;;34.97;29.54;95629.28;5009723;28;20313;-82
2023/07/11 10:17:42;;;;;;;12.75;6.93;;;;;;;34.25;30.63;95623.56;5030797;28;20746;-82
2023/07/11 10:20:16;;;;;;;8.10;7.18;;;;;;;35.06;28.99;95630.16;5031541;28;20210;-83
2023/07/11 10:22:43;;;;;;;7.60;6.60;;;;;;;34.00;29.90;95625.56;5028148;28;20200;-82
2023/07/11 10:25:26;;;;;;;7.43;6.68;;;;;;;33.84;31.34;95626.91;5029365;28;20670;-83
2023/07/11 10:27:55;;;;;;;8.20;7.28;;;;;;;34.68;29.16;95631.44;5031951;28;20210;-83
2023/07/11 10:30:25;;;;;;;8.52;6.75;;;;;;;35.04;28.07;95626.19;5043036;28;20197;-82
2023/07/11 10:32:57;;;;;;;9.65;7.30;;;;;;;34.53;29.46;95617.13;5030782;28;20194;-82
2023/07/11 10:35:24;;;;;;;10.52;6.78;;;;;;;35.10;29.74;95614.19;5028001;28;20210;-82
2023/07/11 10:38:01;;;;;;;7.32;6.45;;;;;;;35.37;29.05;95616.84;5038993;28;20232;-83
2023/07/11 10:40:31;;;;;;;8.80;7.00;;;;;;;35.37;28.48;95613.34;5013211;28;20655;-82
2023/07/11 10:43:22;;;;;;;8.52;6.97;;;;;;;35.92;27.05;95605.13;5027628;28;20636;-82
2023/07/11 10:45:50;;;;;;;7.95;7.15;;;;;;;34.60;30.44;95605.97;5027751;28;20318;-83
2023/07/11 10:48:32;;;;;;;11.32;7.35;;;;;;;34.53;30.02;95600.97;5038309;28;20289;-82
2023/07/11 10:51:06;;;;;;;7.50;6.65;;;;;;;34.78;30.29;95599.69;5026681;28;20198;-81
2023/07/11 10:53:54;;;;;;;8.27;7.10;;;;;;;34.41;29.85;95605.25;5032237;28;20352;-82
2023/07/11 10:56:25;;;;;;;8.30;7.07;;;;;;;34.63;29.87;95600.78;5056277;28;20228;-82
2023/07/11 10:58:52;;;;;;;6.70;6.10;;;;;;;35.12;29.97;95590.41;5029947;28;20179;-82
2023/07/11 11:01:26;;;;;;;7.78;7.03;;;;;;;34.53;29.90;95587.47;5039005;28;20329;-83
2023/07/11 11:04:03;;;;;;;11.65;7.10;;;;;;;35.19;29.06;95591.59;5033787;28;20192;-81
2023/07/11 11:06:54;;;;;;;8.07;6.43;;;;;;;34.82;29.65;95578.31;5030229;28;20206;-81
2023/07/11 11:09:31;;;;;;;9.55;6.88;;;;;;;35.36;28.61;95580.16;5032618;28;20199;-81
2023/07/11 11:11:59;;;;;;;9.13;6.90;;;;;;;35.38;28.18;95575.25;5027982;28;20190;-82
2023/07/11 11:14:40;;;;;;;10.00;7.00;;;;;;;34.63;29.25;95557.66;5031651;28;20198;-82
2023/07/11 11:17:16;;;;;;;7.07;6.38;;;;;;;34.39;29.79;95562.44;5032754;28;20214;-82
2023/07/11 11:19:50;;;;;;;8.88;6.78;;;;;;;34.26;29.82;95550.47;5037602;28;20182;-81
2023/07/11 11:22:36;;;;;;;11.90;7.15;;;;;;;34.45;29.80;95555.81;5035238;28;20647;-81
2023/07/11 11:25:12;;;;;;;7.85;7.13;;;;;;;34.67;30.58;95543.56;5030276;28;20656;-81
2023/07/11 11:28:14;;;;;;;12.43;7.10;;;;;;;34.91;30.24;95547.66;5032872;28;20190;-80
2023/07/11 11:30:48;;;;;;;8.25;6.97;;;;;;;34.91;29.92;95544.16;5059373;28;20194;-81
2023/07/11 11:33:26;;;;;;;8.35;7.35;;;;;;;34.81;30.72;95541.63;5036502;28;20212;-82
2023/07/11 11:36:04;;;;;;;9.60;6.80;;;;;;;35.40;29.22;95539.88;5034318;28;20690;-81
2023/07/11 11:38:39;;;;;;;7.05;6.38;;;;;;;35.58;28.31;95544.28;5019660;28;20571;-82
2023/07/11 11:41:11;;;;;;;8.25;7.45;;;;;;;35.17;29.08;95539.03;5050375;28;20266;-80
2023/07/11 11:43:37;;;;;;;8.07;7.00;;;;;;;35.36;29.65;95533.47;5019235;28;20187;-82
2023/07/11 11:46:04;;;;;;;8.52;7.10;;;;;;;34.49;30.09;95527.19;5030964;28;20280;-82
2023/07/11 11:48:30;;;;;;;8.10;7.05;;;;;;;34.81;30.37;95525.44;5036986;28;20210;-81
2023/07/11 11:50:57;;;;;;;9.38;7.57;;;;;;;34.73;30.48;95523.47;5019539;28;20191;-82
2023/07/11 11:53:30;;;;;;;8.48;7.22;;;;;;;35.31;29.02;95512.78;5042822;28;20186;-82